Time;durP1;ratioP1;P1;durP2;ratioP2;P2;SDS_P1;SDS_P2;PMS_P1;PMS_P2;Temp;Humidity;BMP_temperature;BMP_pressure;BME280_temperature;BME280_humidity;BME280_pressure;Samples;Min_cycle;Max_cycle;Signal;HPM_P1;HPM_P2
2021/12/25 00:01:16;;;;;;;13.37;9.80;;;8.40;99.90;;;;;;5070367;28;20450;-70
2021/12/25 00:03:43;;;;;;;13.97;10.20;;;8.40;99.90;;;;;;5071325;28;20483;-70
2021/12/25 00:06:09;;;;;;;12.47;9.00;;;8.50;99.90;;;;;;5069914;28;20439;-70
2021/12/25 00:08:37;;;;;;;12.13;9.90;;;8.50;99.90;;;;;;5055210;28;20519;-70
2021/12/25 00:11:07;;;;;;;15.57;9.60;;;8.50;99.90;;;;;;5068628;28;20455;-69
2021/12/25 00:13:35;;;;;;;8.17;7.20;;;8.50;99.90;;;;;;5061238;28;20444;-70
2021/12/25 00:16:01;;;;;;;9.00;6.87;;;8.50;99.90;;;;;;5051411;28;20479;-70
2021/12/25 00:18:28;;;;;;;13.43;10.10;;;8.40;99.90;;;;;;5056226;28;20458;-70
2021/12/25 00:20:55;;;;;;;9.37;7.90;;;8.40;99.90;;;;;;5059990;28;20992;-70
2021/12/25 00:23:22;;;;;;;10.90;7.93;;;8.40;99.90;;;;;;5067511;28;20460;-69
2021/12/25 00:25:55;;;;;;;14.03;10.13;;;8.40;99.90;;;;;;5063148;28;20889;-70
2021/12/25 00:28:36;;;;;;;14.67;11.10;;;8.40;99.90;;;;;;5072281;28;21104;-70
2021/12/25 00:31:10;;;;;;;14.30;9.37;;;8.40;99.90;;;;;;5062069;28;20453;-72
2021/12/25 00:33:53;;;;;;;13.10;8.53;;;8.40;99.90;;;;;;5065804;28;20556;-70
2021/12/25 00:36:22;;;;;;;10.63;9.50;;;8.40;99.90;;;;;;5071577;28;21005;-70
2021/12/25 00:38:50;;;;;;;12.10;9.03;;;8.40;99.90;;;;;;5067612;28;20449;-70
2021/12/25 00:41:20;;;;;;;17.10;10.77;;;8.40;99.90;;;;;;5099292;22;20559;-72
2021/12/25 00:43:48;;;;;;;15.93;10.40;;;8.40;99.90;;;;;;5086265;28;20955;-72
2021/12/25 00:46:15;;;;;;;14.87;12.20;;;8.40;99.90;;;;;;5086880;28;20447;-72
2021/12/25 00:48:42;;;;;;;10.10;8.47;;;8.40;99.90;;;;;;5085666;28;20466;-72
2021/12/25 00:51:09;;;;;;;12.10;10.80;;;8.40;99.90;;;;;;5085986;28;20528;-72
2021/12/25 00:53:35;;;;;;;15.80;9.77;;;8.40;99.90;;;;;;5087145;28;21001;-72
2021/12/25 00:56:02;;;;;;;18.67;9.97;;;8.40;99.90;;;;;;5087024;28;20819;-72
2021/12/25 00:58:30;;;;;;;12.67;7.70;;;8.40;99.90;;;;;;5089703;28;20500;-72
2021/12/25 01:00:57;;;;;;;6.67;5.33;;;8.40;99.90;;;;;;5090191;28;20478;-72
2021/12/25 01:03:24;;;;;;;9.23;6.00;;;8.40;99.90;;;;;;5087922;28;20500;-72
2021/12/25 01:05:50;;;;;;;5.60;4.43;;;8.40;99.90;;;;;;5086074;28;20466;-72
2021/12/25 01:08:17;;;;;;;4.63;4.20;;;8.30;99.90;;;;;;5086618;28;20512;-72
2021/12/25 01:10:44;;;;;;;3.87;3.43;;;8.20;99.90;;;;;;5092395;28;20836;-72
2021/12/25 01:13:14;;;;;;;3.03;2.67;;;8.10;99.90;;;;;;5087231;28;20455;-72
2021/12/25 01:15:57;;;;;;;4.67;2.83;;;8.00;99.90;;;;;;5086349;28;20473;-72
2021/12/25 01:29:51;;;;;;;4.20;2.37;;;7.70;99.90;;;;;;5076742;28;20467;-73
2021/12/25 01:38:09;;;;;;;2.77;2.10;;;7.50;99.90;;;;;;5073568;28;21019;-72
2021/12/25 01:40:52;;;;;;;2.80;2.33;;;7.50;99.90;;;;;;5067053;28;20829;-72
2021/12/25 01:48:47;;;;;;;4.53;2.80;;;7.40;99.90;;;;;;5088090;28;20704;-73
2021/12/25 01:51:14;;;;;;;3.60;2.60;;;7.40;99.90;;;;;;5078757;28;20270;-73
2021/12/25 01:53:42;;;;;;;2.90;2.70;;;7.40;99.90;;;;;;5078526;28;20737;-72
2021/12/25 01:56:09;;;;;;;2.28;1.90;;;7.40;99.90;;;;;;5084159;28;20200;-73
2021/12/25 01:58:37;;;;;;;4.82;3.13;;;7.40;99.90;;;;;;5068800;28;20210;-72
2021/12/25 02:01:06;;;;;;;3.78;3.47;;;7.40;99.90;;;;;;5083822;28;20216;-73
2021/12/25 02:03:34;;;;;;;2.90;2.70;;;7.30;99.90;;;;;;5070135;28;20209;-72
2021/12/25 02:06:01;;;;;;;3.80;3.20;;;7.30;99.90;;;;;;5081839;28;20253;-73
2021/12/25 02:08:29;;;;;;;3.50;3.15;;;7.40;99.90;;;;;;5075365;28;20631;-73
2021/12/25 02:10:57;;;;;;;2.45;2.25;;;7.30;99.90;;;;;;5082771;28;20217;-73
2021/12/25 02:13:25;;;;;;;2.25;1.92;;;7.30;99.90;;;;;;5075457;28;20205;-73
2021/12/25 02:15:54;;;;;;;3.88;2.60;;;7.30;99.90;;;;;;5080895;28;20322;-73
2021/12/25 02:18:26;;;;;;;2.97;2.03;;;7.30;99.90;;;;;;5065276;28;20264;-72
2021/12/25 02:21:02;;;;;;;3.05;2.78;;;7.40;99.90;;;;;;5081401;28;20225;-72
2021/12/25 02:23:31;;;;;;;3.75;2.45;;;7.30;99.90;;;;;;5078569;28;20213;-72
2021/12/25 02:25:58;;;;;;;4.30;2.78;;;7.30;99.90;;;;;;5067539;28;20201;-72
2021/12/25 02:28:26;;;;;;;2.78;2.05;;;7.30;99.90;;;;;;5063845;28;20205;-72
2021/12/25 02:30:57;;;;;;;2.97;2.50;;;7.30;99.90;;;;;;5069479;28;20651;-72
2021/12/25 02:33:25;;;;;;;4.65;2.92;;;7.30;99.90;;;;;;5061488;28;20554;-72
2021/12/25 02:35:54;;;;;;;2.33;2.13;;;7.30;99.90;;;;;;5058272;28;20201;-72
2021/12/25 02:38:21;;;;;;;2.80;2.58;;;7.30;99.90;;;;;;5060476;28;20657;-72
2021/12/25 02:40:48;;;;;;;3.20;2.65;;;7.20;99.90;;;;;;5049225;28;20234;-74
2021/12/25 02:43:15;;;;;;;3.00;2.28;;;7.20;99.90;;;;;;5060435;28;20258;-73
2021/12/25 02:45:42;;;;;;;2.75;2.55;;;7.20;99.90;;;;;;5062331;28;20205;-73
2021/12/25 02:48:11;;;;;;;3.13;2.47;;;7.20;99.90;;;;;;5068035;28;20205;-73
2021/12/25 02:50:39;;;;;;;2.03;1.60;;;7.10;99.90;;;;;;5056546;28;20216;-73
2021/12/25 02:53:09;;;;;;;3.55;2.70;;;7.10;99.90;;;;;;5063502;28;20209;-72
2021/12/25 02:55:38;;;;;;;3.63;2.97;;;7.10;99.90;;;;;;5062382;28;20254;-72
2021/12/25 02:58:05;;;;;;;2.47;2.22;;;7.10;99.90;;;;;;5062384;28;20201;-72
2021/12/25 03:00:35;;;;;;;1.65;1.50;;;7.10;99.90;;;;;;5059887;28;20284;-72
2021/12/25 03:03:03;;;;;;;2.00;1.80;;;7.10;99.90;;;;;;5063900;28;20271;-73
2021/12/25 03:05:30;;;;;;;2.88;2.63;;;7.10;99.90;;;;;;5061495;28;20534;-73
2021/12/25 03:07:57;;;;;;;3.30;3.10;;;7.10;99.90;;;;;;5054409;28;20194;-74
2021/12/25 03:10:25;;;;;;;2.03;1.83;;;7.00;99.90;;;;;;5048509;28;20606;-73
2021/12/25 03:13:04;;;;;;;2.17;1.67;;;7.00;99.90;;;;;;5053904;28;20308;-73
2021/12/25 03:15:45;;;;;;;2.10;1.50;;;7.00;99.90;;;;;;5050884;28;20359;-73
2021/12/25 03:18:12;;;;;;;2.40;2.20;;;7.00;99.90;;;;;;5056692;28;20255;-72
2021/12/25 03:20:44;;;;;;;2.40;2.20;;;7.00;99.90;;;;;;5063044;28;20221;-73
2021/12/25 03:23:11;;;;;;;1.70;1.55;;;7.00;99.90;;;;;;5064387;28;20210;-74
2021/12/25 03:25:40;;;;;;;1.60;1.42;;;6.90;99.90;;;;;;5051986;28;20528;-72
2021/12/25 03:28:07;;;;;;;1.60;1.45;;;6.90;99.90;;;;;;5049679;28;20548;-73
2021/12/25 03:30:37;;;;;;;3.30;1.98;;;6.90;99.90;;;;;;5059125;28;20287;-72
2021/12/25 03:33:05;;;;;;;1.42;1.33;;;6.90;99.90;;;;;;5063749;28;20295;-73
2021/12/25 03:35:33;;;;;;;2.42;2.22;;;6.90;99.90;;;;;;5058630;28;20201;-72
2021/12/25 03:38:00;;;;;;;2.67;2.47;;;6.90;99.90;;;;;;5066574;28;20737;-73
2021/12/25 03:40:26;;;;;;;2.53;2.17;;;6.80;99.90;;;;;;5068246;28;20667;-72
2021/12/25 03:42:55;;;;;;;1.98;1.80;;;6.90;99.90;;;;;;5066046;28;20609;-74
2021/12/25 03:45:22;;;;;;;2.20;2.00;;;6.80;99.90;;;;;;5048898;28;20354;-73
2021/12/25 03:47:51;;;;;;;2.20;1.85;;;6.80;99.90;;;;;;5049843;28;20243;-74
2021/12/25 03:53:24;;;;;;;1.70;1.60;;;6.70;99.90;;;;;;5062463;28;20207;-74
2021/12/25 03:58:37;;;;;;;1.92;1.60;;;6.70;99.90;;;;;;5047820;28;20258;-74
2021/12/25 04:01:24;;;;;;;1.67;1.58;;;6.70;99.90;;;;;;5052826;28;20300;-73
2021/12/25 04:04:04;;;;;;;1.60;1.50;;;6.60;99.90;;;;;;5058275;28;20209;-73
2021/12/25 04:06:32;;;;;;;2.28;1.55;;;6.60;99.90;;;;;;5049570;28;20248;-74
2021/12/25 04:09:00;;;;;;;2.50;2.08;;;6.50;99.90;;;;;;5057910;28;20240;-72
2021/12/25 04:11:29;;;;;;;1.65;1.55;;;6.50;99.90;;;;;;5062068;28;20489;-72
2021/12/25 04:13:57;;;;;;;1.90;1.80;;;6.40;99.90;;;;;;5069112;28;20201;-74
2021/12/25 04:16:26;;;;;;;1.38;1.20;;;6.40;99.90;;;;;;5067973;28;20377;-73
2021/12/25 04:18:53;;;;;;;2.70;1.55;;;6.40;99.90;;;;;;5050487;28;20278;-73
2021/12/25 04:21:22;;;;;;;2.72;1.73;;;6.40;99.90;;;;;;5054015;28;20367;-74
2021/12/25 04:23:49;;;;;;;2.47;2.28;;;6.40;99.90;;;;;;5049509;28;20209;-74
2021/12/25 04:26:15;;;;;;;1.80;1.10;;;6.40;99.90;;;;;;5048292;28;20210;-73
2021/12/25 04:28:47;;;;;;;1.95;1.60;;;6.30;99.90;;;;;;5058901;28;20259;-74
2021/12/25 04:31:31;;;;;;;1.90;1.80;;;6.30;99.90;;;;;;5049971;28;20228;-74
2021/12/25 04:48:07;;;;;;;2.30;2.10;;;6.20;99.90;;;;;;5063075;28;20671;-74
2021/12/25 05:01:55;;;;;;;2.97;2.30;;;6.00;99.90;;;;;;5054279;28;20513;-74
2021/12/25 05:04:27;;;;;;;4.30;2.92;;;6.10;99.90;;;;;;5047657;28;20439;-72
2021/12/25 05:06:54;;;;;;;2.10;1.90;;;6.00;99.90;;;;;;5053608;28;20572;-75
2021/12/25 05:09:21;;;;;;;2.70;2.45;;;6.10;99.90;;;;;;5052773;28;20216;-72
2021/12/25 05:11:48;;;;;;;3.60;2.47;;;6.00;99.90;;;;;;5054387;28;20221;-74
2021/12/25 05:14:15;;;;;;;2.60;2.10;;;6.00;99.90;;;;;;5065865;28;20354;-74
2021/12/25 05:16:42;;;;;;;2.42;2.22;;;5.90;99.90;;;;;;5064835;28;20213;-74
2021/12/25 05:19:09;;;;;;;2.67;2.30;;;5.90;99.90;;;;;;5065472;28;20212;-72
2021/12/25 05:21:37;;;;;;;2.70;2.00;;;5.80;99.90;;;;;;5060098;28;20221;-72
2021/12/25 05:24:05;;;;;;;3.30;2.72;;;5.80;99.90;;;;;;5065905;28;20198;-72
2021/12/25 05:26:33;;;;;;;3.85;2.60;;;5.80;99.90;;;;;;5067333;28;20205;-74
2021/12/25 05:29:00;;;;;;;3.95;2.90;;;5.80;99.90;;;;;;5065217;28;20308;-73
2021/12/25 05:31:28;;;;;;;3.42;2.47;;;5.80;99.90;;;;;;5064692;28;20225;-72
2021/12/25 05:33:55;;;;;;;2.35;1.90;;;5.80;99.90;;;;;;5063969;28;20851;-74
2021/12/25 05:36:24;;;;;;;3.30;2.58;;;5.70;99.90;;;;;;5058012;28;20217;-72
2021/12/25 05:38:56;;;;;;;2.92;2.22;;;5.70;99.90;;;;;;5059259;28;20757;-73
2021/12/25 05:41:22;;;;;;;3.50;2.83;;;5.70;99.90;;;;;;5051543;28;20279;-74
2021/12/25 05:43:49;;;;;;;2.85;2.15;;;5.60;99.90;;;;;;5055132;28;20682;-74
2021/12/25 05:46:16;;;;;;;4.20;2.20;;;5.60;99.90;;;;;;5062023;28;20651;-73
2021/12/25 05:48:42;;;;;;;3.05;2.65;;;5.60;99.90;;;;;;5065391;28;20647;-72
2021/12/25 05:51:09;;;;;;;4.38;3.40;;;5.50;99.90;;;;;;5064180;28;20244;-74
2021/12/25 05:53:36;;;;;;;3.97;2.55;;;5.50;99.90;;;;;;5053188;28;20271;-74
2021/12/25 05:56:04;;;;;;;2.65;2.45;;;5.50;99.90;;;;;;5053211;28;20260;-74
2021/12/25 05:58:31;;;;;;;2.17;2.08;;;5.50;99.90;;;;;;5046054;28;20480;-74
2021/12/25 06:00:58;;;;;;;3.17;2.42;;;5.50;99.90;;;;;;5059598;28;20237;-73
2021/12/25 06:03:24;;;;;;;2.65;2.40;;;5.50;99.90;;;;;;5054185;28;20198;-73
2021/12/25 06:05:51;;;;;;;2.78;2.00;;;5.50;99.90;;;;;;5059147;28;20458;-73
2021/12/25 06:08:18;;;;;;;3.00;1.80;;;5.50;99.90;;;;;;5064645;28;20209;-73
2021/12/25 06:10:45;;;;;;;3.42;3.10;;;5.50;99.90;;;;;;5062794;28;21516;-73
2021/12/25 06:13:18;;;;;;;4.30;3.15;;;5.50;99.90;;;;;;5065850;28;20548;-73
2021/12/25 06:15:44;;;;;;;2.90;2.47;;;5.50;99.90;;;;;;5066320;28;20291;-74
2021/12/25 06:18:12;;;;;;;2.45;2.25;;;5.50;99.90;;;;;;5055579;28;20206;-73
2021/12/25 06:20:39;;;;;;;2.80;2.20;;;5.40;99.90;;;;;;5064210;28;20222;-72
2021/12/25 06:23:06;;;;;;;2.67;2.47;;;5.40;99.90;;;;;;5053662;28;20264;-74
2021/12/25 06:25:33;;;;;;;3.53;3.22;;;5.40;99.90;;;;;;5049946;28;20205;-73
2021/12/25 06:28:00;;;;;;;3.25;2.15;;;5.30;99.90;;;;;;5064844;28;20213;-73
2021/12/25 06:30:28;;;;;;;2.70;2.10;;;5.30;99.90;;;;;;5067297;28;20225;-73
2021/12/25 06:32:55;;;;;;;4.60;2.83;;;5.30;99.90;;;;;;5067761;28;20217;-74
2021/12/25 06:35:22;;;;;;;4.07;3.47;;;5.30;99.90;;;;;;5061006;28;20224;-72
2021/12/25 06:37:48;;;;;;;4.00;3.50;;;5.30;99.90;;;;;;5061098;28;20578;-73
2021/12/25 06:40:18;;;;;;;2.45;2.20;;;5.30;99.90;;;;;;5060716;28;20225;-73
2021/12/25 06:42:45;;;;;;;2.85;2.42;;;5.30;99.90;;;;;;5068740;28;20252;-73
2021/12/25 06:45:12;;;;;;;3.97;3.22;;;5.20;99.90;;;;;;5060645;28;20931;-73
2021/12/25 06:47:40;;;;;;;4.60;2.25;;;5.20;99.90;;;;;;5064618;28;20262;-74
2021/12/25 06:50:08;;;;;;;2.75;2.45;;;5.20;99.90;;;;;;5057378;28;20267;-72
2021/12/25 06:52:36;;;;;;;7.30;2.20;;;5.20;99.90;;;;;;5064537;28;20201;-73
2021/12/25 06:55:03;;;;;;;4.13;3.70;;;5.10;99.90;;;;;;5053489;28;20243;-73
2021/12/25 06:57:29;;;;;;;2.95;2.17;;;5.10;99.90;;;;;;5060335;28;20260;-72
2021/12/25 06:59:56;;;;;;;3.65;2.55;;;5.10;99.90;;;;;;5048918;28;20226;-72
2021/12/25 07:02:23;;;;;;;3.10;2.45;;;5.10;99.90;;;;;;5056825;28;20252;-73
2021/12/25 07:04:52;;;;;;;3.97;2.58;;;5.10;99.90;;;;;;5047782;28;20615;-72
2021/12/25 07:07:21;;;;;;;3.67;2.88;;;5.10;99.90;;;;;;5055319;28;20323;-72
2021/12/25 07:09:47;;;;;;;2.20;2.00;;;5.10;99.90;;;;;;5047291;28;20718;-72
2021/12/25 07:12:14;;;;;;;3.08;2.50;;;5.10;99.90;;;;;;5048192;28;20232;-72
2021/12/25 07:14:40;;;;;;;4.20;3.80;;;5.00;99.90;;;;;;5061574;28;20197;-72
2021/12/25 07:17:07;;;;;;;2.58;1.92;;;5.00;99.90;;;;;;5058228;28;20202;-72
2021/12/25 07:19:34;;;;;;;2.47;2.00;;;5.00;99.90;;;;;;5056160;28;20375;-72
2021/12/25 07:22:03;;;;;;;2.53;2.25;;;4.90;99.90;;;;;;5068094;28;20594;-72
2021/12/25 07:24:29;;;;;;;3.58;2.70;;;4.90;99.90;;;;;;5072301;28;20201;-72
2021/12/25 07:26:58;;;;;;;2.58;2.38;;;4.90;99.90;;;;;;5058754;28;20206;-72
2021/12/25 07:29:24;;;;;;;2.97;2.15;;;4.90;99.90;;;;;;5060354;28;20202;-74
2021/12/25 07:31:51;;;;;;;2.72;1.90;;;4.90;99.90;;;;;;5055830;28;20897;-72
2021/12/25 07:34:18;;;;;;;2.72;2.53;;;4.90;99.90;;;;;;5064193;28;20205;-73
2021/12/25 07:36:44;;;;;;;4.57;3.25;;;4.90;99.90;;;;;;5062806;28;20205;-71
2021/12/25 07:39:12;;;;;;;2.05;1.85;;;4.90;99.90;;;;;;5064314;28;20271;-71
2021/12/25 07:41:39;;;;;;;2.75;2.53;;;4.80;99.90;;;;;;5062013;28;20300;-71
2021/12/25 07:44:06;;;;;;;2.88;2.60;;;4.80;99.90;;;;;;5062252;28;20255;-72
2021/12/25 07:46:33;;;;;;;4.20;2.35;;;4.80;99.90;;;;;;5055622;28;20206;-73
2021/12/25 07:49:00;;;;;;;2.85;2.65;;;4.90;99.90;;;;;;5059013;28;20713;-73
2021/12/25 07:51:27;;;;;;;2.00;1.67;;;4.80;99.90;;;;;;5064266;28;20700;-71
2021/12/25 07:53:54;;;;;;;3.75;2.63;;;4.90;99.90;;;;;;5056363;28;20206;-71
2021/12/25 07:56:25;;;;;;;2.47;2.28;;;4.80;99.90;;;;;;5049083;28;20210;-72
2021/12/25 07:58:51;;;;;;;4.18;3.03;;;4.80;99.90;;;;;;5056856;28;20598;-72
2021/12/25 08:01:19;;;;;;;4.00;3.60;;;4.70;99.90;;;;;;5064998;28;20233;-71
2021/12/25 08:03:45;;;;;;;3.15;2.35;;;4.80;99.90;;;;;;5063110;28;20304;-72
2021/12/25 08:06:12;;;;;;;2.95;2.47;;;4.70;99.90;;;;;;5055069;28;20569;-73
2021/12/25 08:08:39;;;;;;;3.00;2.50;;;4.80;99.90;;;;;;5070406;28;20205;-72
2021/12/25 08:11:05;;;;;;;3.47;2.80;;;4.80;99.90;;;;;;5052077;28;20221;-71
2021/12/25 08:13:33;;;;;;;2.20;2.00;;;4.80;99.90;;;;;;5069906;28;20641;-72
2021/12/25 08:16:00;;;;;;;2.22;2.13;;;4.80;99.90;;;;;;5067327;28;20202;-73
2021/12/25 08:18:27;;;;;;;3.97;2.58;;;4.70;99.90;;;;;;5068656;28;20322;-73
2021/12/25 08:20:53;;;;;;;2.63;2.40;;;4.70;99.90;;;;;;5070274;28;20241;-73
2021/12/25 08:23:20;;;;;;;3.70;2.28;;;4.70;99.90;;;;;;5060383;28;20206;-72
2021/12/25 08:25:47;;;;;;;2.60;1.80;;;4.70;99.90;;;;;;5049157;28;20263;-72
2021/12/25 08:28:13;;;;;;;3.50;3.00;;;4.70;99.90;;;;;;5047082;28;20604;-74
2021/12/25 08:30:41;;;;;;;3.00;2.17;;;4.70;99.90;;;;;;5049380;28;20221;-73
2021/12/25 08:33:08;;;;;;;4.00;2.80;;;4.70;99.90;;;;;;5064539;28;20355;-72
2021/12/25 08:35:35;;;;;;;3.83;3.45;;;4.70;99.90;;;;;;5057509;28;20197;-70
2021/12/25 08:38:03;;;;;;;3.45;2.60;;;4.70;99.90;;;;;;5053303;28;20279;-71
2021/12/25 08:40:29;;;;;;;2.50;1.85;;;4.70;99.90;;;;;;5059000;28;20294;-71
2021/12/25 08:43:00;;;;;;;2.42;2.22;;;4.60;99.90;;;;;;5056375;28;20221;-70
2021/12/25 08:48:12;;;;;;;7.55;2.30;;;4.60;99.90;;;;;;5051792;28;20297;-70
2021/12/25 08:50:40;;;;;;;1.73;1.63;;;4.60;99.90;;;;;;5049300;28;20249;-74
2021/12/25 08:53:07;;;;;;;2.13;1.95;;;4.60;99.90;;;;;;5051171;28;20265;-72
2021/12/25 08:55:34;;;;;;;2.17;2.08;;;4.60;99.90;;;;;;5053972;28;20323;-72
2021/12/25 08:58:00;;;;;;;2.08;1.77;;;4.60;99.90;;;;;;5055709;28;20260;-72
2021/12/25 09:00:27;;;;;;;2.35;2.15;;;4.60;99.90;;;;;;5061391;28;20353;-72
2021/12/25 09:02:54;;;;;;;2.67;2.05;;;4.60;99.90;;;;;;5060769;28;20228;-75
2021/12/25 09:05:22;;;;;;;2.28;2.08;;;4.60;99.90;;;;;;5059837;28;20318;-73
2021/12/25 09:07:50;;;;;;;2.35;2.17;;;4.60;99.90;;;;;;5063752;28;20267;-73
2021/12/25 09:10:17;;;;;;;1.60;1.50;;;4.60;99.90;;;;;;5046014;28;20701;-73
2021/12/25 09:12:45;;;;;;;2.30;2.10;;;4.60;99.90;;;;;;5060263;28;20205;-74
2021/12/25 09:15:12;;;;;;;2.88;2.30;;;4.60;99.90;;;;;;5064858;28;20240;-70
2021/12/25 09:17:39;;;;;;;2.50;2.30;;;4.60;99.90;;;;;;5051190;28;20652;-72
2021/12/25 09:20:08;;;;;;;1.30;1.20;;;4.50;99.90;;;;;;5064881;28;20293;-71
2021/12/25 09:22:36;;;;;;;3.05;2.40;;;4.50;99.90;;;;;;5060763;28;20229;-70
2021/12/25 09:25:04;;;;;;;1.98;1.42;;;4.50;99.90;;;;;;5050084;28;20261;-70
2021/12/25 09:27:31;;;;;;;1.30;1.20;;;4.50;99.90;;;;;;5050382;28;20283;-71
2021/12/25 09:29:58;;;;;;;2.20;0.90;;;4.50;99.90;;;;;;5050253;28;20224;-70
2021/12/25 09:32:24;;;;;;;0.80;0.80;;;4.50;99.90;;;;;;5062305;28;20235;-71
2021/12/25 09:34:51;;;;;;;1.70;1.60;;;4.50;99.90;;;;;;5063371;28;20634;-71
2021/12/25 09:37:18;;;;;;;1.33;1.23;;;4.50;99.90;;;;;;5053296;28;20709;-71
2021/12/25 09:39:47;;;;;;;1.50;1.10;;;4.50;99.90;;;;;;5052929;28;20330;-70
2021/12/25 09:42:13;;;;;;;1.30;1.20;;;4.60;99.90;;;;;;5056466;28;20705;-70
2021/12/25 09:44:40;;;;;;;1.60;1.30;;;4.50;99.90;;;;;;5053931;28;20212;-72
2021/12/25 09:47:07;;;;;;;1.67;1.58;;;4.50;99.90;;;;;;5053588;28;20236;-72
2021/12/25 09:49:33;;;;;;;1.30;1.20;;;4.50;99.90;;;;;;5066153;28;20209;-72
2021/12/25 09:52:00;;;;;;;0.50;0.50;;;4.50;99.90;;;;;;5063036;28;20205;-70
2021/12/25 09:54:27;;;;;;;0.82;0.82;;;4.50;99.90;;;;;;5059898;28;20205;-72
2021/12/25 09:56:58;;;;;;;1.23;1.13;;;4.50;99.90;;;;;;5060652;28;20197;-72
2021/12/25 09:59:25;;;;;;;4.30;1.13;;;4.60;99.90;;;;;;5060053;28;20213;-70
2021/12/25 10:01:54;;;;;;;0.75;0.75;;;4.60;99.90;;;;;;5062798;28;20267;-71
2021/12/25 10:04:34;;;;;;;3.95;0.95;;;4.70;99.90;;;;;;5060420;28;20438;-74
2021/12/25 10:07:13;;;;;;;1.23;0.95;;;4.70;99.90;;;;;;5069508;28;20223;-70
2021/12/25 10:09:39;;;;;;;0.70;0.70;;;4.80;99.90;;;;;;5060414;28;20205;-70
2021/12/25 10:12:10;;;;;;;0.70;0.50;;;4.80;99.90;;;;;;5068266;28;20219;-72
2021/12/25 10:14:37;;;;;;;0.75;0.75;;;4.80;99.90;;;;;;5068510;28;20659;-71
2021/12/25 10:17:15;;;;;;;1.60;1.02;;;4.80;99.90;;;;;;5055314;28;20212;-70
2021/12/25 10:19:42;;;;;;;1.15;0.88;;;4.80;99.90;;;;;;5051252;28;20652;-72
2021/12/25 10:22:12;;;;;;;0.60;0.60;;;4.80;99.90;;;;;;5060211;28;20225;-68
2021/12/25 10:24:48;;;;;;;0.90;0.90;;;4.80;99.90;;;;;;5059067;28;20695;-70
2021/12/25 10:27:20;;;;;;;0.82;0.60;;;4.80;99.90;;;;;;5058427;28;20193;-70
2021/12/25 10:29:47;;;;;;;0.90;0.90;;;4.80;99.90;;;;;;5061145;28;20197;-69
2021/12/25 10:32:20;;;;;;;1.10;0.73;;;4.90;99.90;;;;;;5049481;28;20205;-70
2021/12/25 10:34:48;;;;;;;1.20;1.08;;;4.90;99.90;;;;;;5058845;28;20278;-71
2021/12/25 10:37:17;;;;;;;0.60;0.60;;;4.90;99.90;;;;;;5058252;28;20209;-77
2021/12/25 10:39:45;;;;;;;1.00;0.90;;;4.90;99.90;;;;;;5064345;28;20213;-70
2021/12/25 10:42:16;;;;;;;1.50;0.70;;;4.90;99.90;;;;;;5062493;28;20666;-71
2021/12/25 10:44:46;;;;;;;0.82;0.82;;;4.90;99.90;;;;;;5061512;28;20201;-71
2021/12/25 10:47:16;;;;;;;0.80;0.80;;;4.90;99.90;;;;;;5065817;28;20201;-70
2021/12/25 10:49:44;;;;;;;0.70;0.63;;;4.90;99.90;;;;;;5055618;28;20260;-70
2021/12/25 10:52:15;;;;;;;0.50;0.40;;;4.90;99.90;;;;;;5060925;28;20432;-70
2021/12/25 10:54:46;;;;;;;0.85;0.85;;;4.80;99.90;;;;;;5050982;28;20197;-70
2021/12/25 10:57:30;;;;;;;0.50;0.40;;;4.80;99.90;;;;;;5049171;28;20213;-70
2021/12/25 10:59:58;;;;;;;1.15;1.10;;;4.80;99.90;;;;;;5060486;28;20308;-70
2021/12/25 11:02:30;;;;;;;0.70;0.63;;;4.90;99.90;;;;;;5048386;28;20743;-68
2021/12/25 11:04:58;;;;;;;0.85;0.73;;;5.00;99.90;;;;;;5048194;28;20210;-70
2021/12/25 11:07:26;;;;;;;0.82;0.80;;;5.10;99.90;;;;;;5061251;28;20283;-69
2021/12/25 11:10:06;;;;;;;0.80;0.60;;;5.20;99.90;;;;;;5052018;28;20279;-69
2021/12/25 11:12:34;;;;;;;4.43;2.35;;;5.20;99.90;;;;;;5049951;28;20205;-69
2021/12/25 11:15:20;;;;;;;6.15;4.18;;;5.20;99.90;;;;;;5055484;28;20197;-69
2021/12/25 11:17:51;;;;;;;1.52;1.38;;;5.20;99.90;;;;;;5056347;28;20213;-69
2021/12/25 11:20:28;;;;;;;0.93;0.85;;;5.20;99.90;;;;;;5058763;28;20238;-69
2021/12/25 11:22:58;;;;;;;1.02;0.98;;;5.20;99.90;;;;;;5051084;28;20287;-69
2021/12/25 11:25:27;;;;;;;0.82;0.65;;;5.20;99.90;;;;;;5057820;28;20208;-68
2021/12/25 11:27:55;;;;;;;1.42;0.60;;;5.30;99.90;;;;;;5051310;28;20210;-71
2021/12/25 11:30:27;;;;;;;1.13;1.10;;;5.30;99.90;;;;;;5056644;28;20225;-70
2021/12/25 11:32:55;;;;;;;2.50;1.10;;;5.40;99.90;;;;;;5057964;28;20215;-70
2021/12/25 11:35:23;;;;;;;0.73;0.73;;;5.30;99.90;;;;;;5061871;28;20213;-70
2021/12/25 11:37:51;;;;;;;1.30;0.70;;;5.30;99.90;;;;;;5072376;28;20279;-69
2021/12/25 11:40:23;;;;;;;10.00;4.45;;;5.20;99.90;;;;;;5065927;28;20233;-69
2021/12/25 11:42:53;;;;;;;14.15;6.35;;;5.20;99.90;;;;;;5059136;28;20312;-70
2021/12/25 11:45:27;;;;;;;2.90;1.83;;;5.20;99.90;;;;;;5055742;28;20216;-68
2021/12/25 11:47:56;;;;;;;0.90;0.60;;;5.10;99.90;;;;;;5054320;28;20216;-69
2021/12/25 11:50:34;;;;;;;0.75;0.70;;;5.10;99.90;;;;;;5053791;28;20300;-69
2021/12/25 11:53:07;;;;;;;1.13;0.70;;;5.00;99.90;;;;;;5062977;28;20194;-69
2021/12/25 11:56:02;;;;;;;0.60;0.60;;;5.00;99.90;;;;;;5056466;28;20293;-68
2021/12/25 11:58:40;;;;;;;1.25;0.60;;;5.00;99.90;;;;;;5058883;28;20197;-69
2021/12/25 12:01:27;;;;;;;0.70;0.70;;;5.00;99.90;;;;;;5061481;28;20221;-70
2021/12/25 12:03:56;;;;;;;1.33;1.23;;;5.10;99.90;;;;;;5061260;28;20730;-68
2021/12/25 12:06:58;;;;;;;1.23;1.13;;;5.10;99.90;;;;;;5061793;28;20228;-69
2021/12/25 12:09:27;;;;;;;1.00;0.80;;;5.20;99.90;;;;;;5043892;28;20217;-71
2021/12/25 12:12:19;;;;;;;0.70;0.70;;;5.20;99.90;;;;;;5052229;28;20262;-70
2021/12/25 12:15:04;;;;;;;0.93;0.75;;;5.30;99.90;;;;;;5047933;28;20415;-69
2021/12/25 12:17:32;;;;;;;0.60;0.60;;;5.30;99.90;;;;;;5046898;28;20327;-68
2021/12/25 12:20:02;;;;;;;0.60;0.60;;;5.20;99.90;;;;;;5056928;28;20233;-69
2021/12/25 12:22:57;;;;;;;0.65;0.65;;;5.10;99.90;;;;;;5063215;28;20644;-69
2021/12/25 12:25:31;;;;;;;0.98;0.98;;;5.00;99.90;;;;;;5049675;28;20267;-70
2021/12/25 12:28:00;;;;;;;1.00;0.90;;;5.00;99.90;;;;;;5047238;28;20210;-69
2021/12/25 12:30:40;;;;;;;1.05;0.77;;;4.90;99.90;;;;;;5050352;28;20336;-70
2021/12/25 12:33:34;;;;;;;0.50;0.40;;;4.80;99.90;;;;;;5051001;28;20612;-70
2021/12/25 12:36:01;;;;;;;0.85;0.60;;;4.80;99.90;;;;;;5064858;28;20228;-70
2021/12/25 12:38:37;;;;;;;0.88;0.63;;;4.80;99.90;;;;;;5051241;28;20271;-70
2021/12/25 12:41:16;;;;;;;0.77;0.77;;;4.70;99.90;;;;;;5049980;28;20267;-69
2021/12/25 12:44:03;;;;;;;0.60;0.40;;;4.80;99.90;;;;;;5063103;28;20229;-69
2021/12/25 12:46:57;;;;;;;1.08;0.98;;;4.80;99.90;;;;;;5049475;28;20654;-69
2021/12/25 12:49:29;;;;;;;0.82;0.82;;;4.80;99.90;;;;;;5048748;28;20210;-70
2021/12/25 12:52:22;;;;;;;1.25;0.75;;;4.80;99.90;;;;;;5062679;28;20209;-68
2021/12/25 12:54:52;;;;;;;1.05;0.95;;;4.70;99.90;;;;;;5064173;28;20217;-69
2021/12/25 12:57:22;;;;;;;0.57;0.45;;;4.70;99.90;;;;;;5064989;28;20269;-69
2021/12/25 12:59:51;;;;;;;0.93;0.80;;;4.70;99.90;;;;;;5062481;28;20233;-69
2021/12/25 13:02:19;;;;;;;0.70;0.70;;;4.70;99.90;;;;;;5049069;28;20311;-68
2021/12/25 13:04:49;;;;;;;1.40;1.30;;;4.80;99.90;;;;;;5049523;28;20589;-69
2021/12/25 13:07:18;;;;;;;1.02;0.50;;;4.80;99.90;;;;;;5067480;28;20213;-67
2021/12/25 13:09:51;;;;;;;0.77;0.77;;;4.70;99.90;;;;;;5058449;28;20292;-68
2021/12/25 13:12:33;;;;;;;0.68;0.68;;;4.70;99.90;;;;;;5060588;28;20208;-70
2021/12/25 13:15:03;;;;;;;0.77;0.73;;;4.60;99.90;;;;;;5060029;28;20229;-68
2021/12/25 13:17:30;;;;;;;0.70;0.68;;;4.60;99.90;;;;;;5050482;28;20216;-68
2021/12/25 13:19:58;;;;;;;1.35;0.65;;;4.60;99.90;;;;;;5061555;28;20240;-69
2021/12/25 13:22:25;;;;;;;0.75;0.75;;;4.60;99.90;;;;;;5065556;28;20271;-68
2021/12/25 13:24:55;;;;;;;1.02;0.90;;;4.60;99.90;;;;;;5055163;28;20321;-67
2021/12/25 13:27:23;;;;;;;1.60;1.50;;;4.50;99.90;;;;;;5063149;28;20624;-67
2021/12/25 13:29:50;;;;;;;0.88;0.73;;;4.50;99.90;;;;;;5059920;28;20866;-68
2021/12/25 13:32:25;;;;;;;1.42;0.98;;;4.40;99.90;;;;;;5058198;28;20212;-68
2021/12/25 13:34:52;;;;;;;2.20;2.00;;;4.50;99.90;;;;;;5053986;28;20216;-67
2021/12/25 13:37:21;;;;;;;2.35;2.05;;;4.50;99.90;;;;;;5060615;28;20202;-69
2021/12/25 13:39:47;;;;;;;2.30;1.05;;;4.40;99.90;;;;;;5057152;28;20221;-68
2021/12/25 13:42:16;;;;;;;2.33;1.33;;;4.40;99.90;;;;;;5050428;28;20205;-68
2021/12/25 13:44:45;;;;;;;1.40;0.70;;;4.40;99.90;;;;;;5055106;28;20718;-69
2021/12/25 13:47:22;;;;;;;0.70;0.70;;;4.40;99.90;;;;;;5049612;28;20292;-68
2021/12/25 13:49:51;;;;;;;1.13;0.88;;;4.40;99.90;;;;;;5051923;28;20260;-68
2021/12/25 13:52:34;;;;;;;1.15;1.13;;;4.40;99.90;;;;;;5061919;28;20416;-67
2021/12/25 13:55:10;;;;;;;1.17;1.15;;;4.40;99.90;;;;;;5046387;28;20198;-68
2021/12/25 13:57:41;;;;;;;1.00;0.80;;;4.40;99.90;;;;;;5046049;28;20639;-70
2021/12/25 14:00:12;;;;;;;0.93;0.93;;;4.50;99.90;;;;;;5050005;28;20222;-68
2021/12/25 14:02:40;;;;;;;1.25;1.10;;;4.50;99.90;;;;;;5059808;28;20214;-69
2021/12/25 14:05:08;;;;;;;1.30;1.20;;;4.50;99.90;;;;;;5049573;28;20194;-68